Time;durP1;ratioP1;P1;durP2;ratioP2;P2;SDS_P1;SDS_P2;PMS_P1;PMS_P2;Temp;Humidity;BMP_temperature;BMP_pressure;BME280_temperature;BME280_humidity;BME280_pressure;Samples;Min_cycle;Max_cycle;Signal;HPM_P1;HPM_P2
2022/11/15 00:00:50;;;;;;;42.10;27.52;;;;;;;6.56;100.00;100662.81;5108241;28;20386;-69
2022/11/15 00:03:16;;;;;;;42.03;27.52;;;;;;;6.62;100.00;100659.41;5100727;28;20432;-68
2022/11/15 00:05:41;;;;;;;40.92;26.63;;;;;;;6.67;100.00;100649.88;5107509;28;20028;-68
2022/11/15 00:08:07;;;;;;;41.03;26.65;;;;;;;6.75;100.00;100652.63;5105324;28;20390;-68
2022/11/15 00:10:32;;;;;;;41.78;26.48;;;;;;;6.81;100.00;100652.72;5106332;28;20063;-67
2022/11/15 00:12:58;;;;;;;40.50;25.85;;;;;;;6.88;100.00;100653.72;5106603;28;20542;-68
2022/11/15 00:15:23;;;;;;;41.13;25.98;;;;;;;6.92;100.00;100651.16;5105000;28;20028;-67
2022/11/15 00:17:49;;;;;;;39.78;25.90;;;;;;;6.97;100.00;100652.13;5106597;28;20058;-68
2022/11/15 00:20:14;;;;;;;38.58;25.13;;;;;;;7.04;100.00;100654.84;5100028;28;20032;-68
2022/11/15 00:22:40;;;;;;;39.22;24.92;;;;;;;7.10;100.00;100649.69;5105886;28;20028;-68
2022/11/15 00:25:05;;;;;;;37.92;25.20;;;;;;;7.18;100.00;100653.31;5105319;28;20032;-68
2022/11/15 00:27:31;;;;;;;37.92;24.92;;;;;;;7.27;100.00;100652.56;5105597;28;20153;-68
2022/11/15 00:29:56;;;;;;;37.30;24.60;;;;;;;7.32;100.00;100654.41;5106647;28;20020;-68
2022/11/15 00:32:22;;;;;;;37.00;24.13;;;;;;;7.38;100.00;100650.97;5104436;28;20039;-67
2022/11/15 00:34:47;;;;;;;37.53;24.58;;;;;;;7.43;100.00;100649.28;5107386;28;20035;-68
2022/11/15 00:37:12;;;;;;;35.50;23.55;;;;;;;7.49;100.00;100653.75;5104312;27;20031;-64
2022/11/15 00:39:38;;;;;;;35.78;24.05;;;;;;;7.55;100.00;100647.72;5106266;28;20028;-64
2022/11/15 00:42:03;;;;;;;34.72;23.35;;;;;;;7.60;100.00;100651.25;5105193;28;20034;-63
2022/11/15 00:44:28;;;;;;;34.28;22.42;;;;;;;7.63;100.00;100641.69;5104802;28;20099;-63
2022/11/15 00:46:54;;;;;;;34.13;22.10;;;;;;;7.65;100.00;100639.94;5105739;28;20074;-64
2022/11/15 00:49:19;;;;;;;35.08;22.55;;;;;;;7.69;100.00;100635.63;5103431;28;20039;-63
2022/11/15 00:51:44;;;;;;;32.70;22.10;;;;;;;7.72;100.00;100642.66;5098751;28;20123;-63
2022/11/15 00:54:10;;;;;;;34.05;22.38;;;;;;;7.74;100.00;100630.41;5104037;28;20122;-63
2022/11/15 00:56:35;;;;;;;34.03;22.35;;;;;;;7.76;100.00;100626.03;5104461;28;20114;-64
2022/11/15 00:59:00;;;;;;;34.15;22.52;;;;;;;7.76;100.00;100632.22;5104143;28;20032;-64
2022/11/15 01:01:26;;;;;;;33.53;22.73;;;;;;;7.78;100.00;100624.31;5104311;28;20028;-64
2022/11/15 01:03:51;;;;;;;36.65;23.90;;;;;;;7.82;100.00;100636.63;5106712;28;20032;-64
2022/11/15 01:06:16;;;;;;;36.08;23.70;;;;;;;7.84;100.00;100630.53;5103480;28;20463;-63
2022/11/15 01:08:41;;;;;;;37.15;23.80;;;;;;;7.88;100.00;100630.56;5106400;28;20027;-64
2022/11/15 01:11:10;;;;;;;34.33;23.40;;;;;;;7.89;100.00;100633.22;5104637;28;20035;-64
2022/11/15 01:13:37;;;;;;;34.47;22.77;;;;;;;7.91;100.00;100628.88;5105463;28;20440;-63
2022/11/15 01:16:10;;;;;;;34.88;22.90;;;;;;;7.95;100.00;100624.50;5104741;28;20027;-64
2022/11/15 01:18:36;;;;;;;35.22;23.08;;;;;;;7.98;100.00;100627.16;5105380;28;20028;-63
2022/11/15 01:21:10;;;;;;;34.72;23.20;;;;;;;8.00;100.00;100621.06;5104953;28;20023;-68
2022/11/15 01:23:35;;;;;;;34.53;23.02;;;;;;;8.02;100.00;100616.72;5104847;28;20485;-68
2022/11/15 01:26:02;;;;;;;35.33;23.20;;;;;;;8.03;100.00;100620.22;5104800;28;20030;-67
2022/11/15 01:28:35;;;;;;;34.90;22.98;;;;;;;8.02;100.00;100613.19;5103963;28;20494;-68
2022/11/15 01:31:06;;;;;;;33.13;22.40;;;;;;;8.05;100.00;100609.72;5105104;28;20020;-68
2022/11/15 01:33:35;;;;;;;36.67;23.77;;;;;;;8.07;100.00;100605.31;5104171;28;20065;-68
2022/11/15 01:36:05;;;;;;;35.05;23.73;;;;;;;8.06;100.00;100606.22;5104710;28;20031;-68
2022/11/15 01:38:30;;;;;;;35.90;24.17;;;;;;;8.11;100.00;100601.88;5104249;28;20054;-68
2022/11/15 01:40:56;;;;;;;36.85;23.45;;;;;;;8.20;100.00;100602.84;5105421;28;20035;-68
2022/11/15 01:43:34;;;;;;;36.25;23.35;;;;;;;8.22;100.00;100610.78;5102489;28;20418;-67
2022/11/15 01:46:05;;;;;;;36.35;24.17;;;;;;;8.29;100.00;100612.59;5104590;28;20554;-68
2022/11/15 01:48:34;;;;;;;33.53;23.05;;;;;;;8.34;100.00;100616.19;5104315;28;20099;-68
2022/11/15 01:51:04;;;;;;;34.55;23.52;;;;;;;8.43;100.00;100606.56;5104780;28;20114;-67
2022/11/15 01:53:32;;;;;;;35.13;23.45;;;;;;;8.47;100.00;100611.03;5103516;28;20101;-67
2022/11/15 01:55:58;;;;;;;35.75;23.65;;;;;;;8.51;100.00;100612.84;5105038;28;20027;-68
2022/11/15 01:58:24;;;;;;;35.03;23.67;;;;;;;8.54;100.00;100602.31;5102364;28;20054;-66
2022/11/15 02:00:50;;;;;;;35.63;23.63;;;;;;;8.63;100.00;100596.25;5105236;28;20023;-68
2022/11/15 02:03:16;;;;;;;34.30;23.25;;;;;;;8.67;100.00;100595.41;5102224;28;20032;-67
2022/11/15 02:05:43;;;;;;;35.45;24.17;;;;;;;8.69;100.00;100599.84;5104986;28;20035;-67
2022/11/15 02:08:19;;;;;;;34.55;23.35;;;;;;;8.70;100.00;100593.66;5102941;28;20028;-67
2022/11/15 02:10:45;;;;;;;33.60;23.50;;;;;;;8.76;100.00;100592.84;5105553;28;20055;-69
2022/11/15 02:13:11;;;;;;;34.83;23.63;;;;;;;8.81;100.00;100583.22;5102620;28;20082;-68
2022/11/15 02:15:45;;;;;;;34.42;22.80;;;;;;;8.87;100.00;100590.31;5102877;28;20028;-63
2022/11/15 02:18:17;;;;;;;35.95;24.08;;;;;;;8.89;100.00;100578.00;5102908;27;20429;-63
2022/11/15 02:20:58;;;;;;;36.70;24.75;;;;;;;8.93;100.00;100590.34;5105228;28;20377;-64
2022/11/15 02:23:59;;;;;;;36.65;24.65;;;;;;;8.99;100.00;100579.84;5099207;28;20063;-64
2022/11/15 02:26:24;;;;;;;36.17;24.55;;;;;;;9.04;100.00;100583.41;5039968;28;20029;-63
2022/11/15 02:28:58;;;;;;;34.45;23.33;;;;;;;9.06;100.00;100575.50;5088543;28;20042;-65
2022/11/15 02:31:45;;;;;;;34.83;23.73;;;;;;;9.16;100.00;100576.41;5098980;28;20098;-64
2022/11/15 02:34:35;;;;;;;36.72;24.20;;;;;;;9.18;100.00;100572.03;5102473;28;20083;-64
2022/11/15 02:37:29;;;;;;;34.97;23.48;;;;;;;9.23;100.00;100573.84;5100895;28;20366;-65
2022/11/15 02:40:11;;;;;;;34.92;23.55;;;;;;;9.21;100.00;100574.69;5099443;28;20344;-64
2022/11/15 02:45:35;;;;;;;34.78;23.95;;;;;;;9.25;100.00;100565.94;5100081;28;20640;-64
2022/11/15 02:48:02;;;;;;;36.40;23.90;;;;;;;9.28;100.00;100568.59;5103807;28;20027;-64
2022/11/15 02:50:29;;;;;;;37.28;24.42;;;;;;;9.28;100.00;100560.66;5102300;28;20024;-64
2022/11/15 02:52:55;;;;;;;36.20;24.80;;;;;;;9.31;100.00;100554.53;5104790;28;20035;-64
2022/11/15 02:55:29;;;;;;;36.55;25.05;;;;;;;9.31;100.00;100563.31;5101599;28;20485;-64
2022/11/15 02:57:58;;;;;;;36.30;25.08;;;;;;;9.32;100.00;100559.81;5098872;28;20086;-65
2022/11/15 03:00:23;;;;;;;37.47;25.25;;;;;;;9.34;100.00;100558.06;5104395;28;20027;-64
2022/11/15 03:03:04;;;;;;;37.92;24.63;;;;;;;9.40;100.00;100544.88;5101449;28;20040;-64
2022/11/15 03:05:59;;;;;;;34.80;24.38;;;;;;;9.37;100.00;100544.88;5099981;28;20052;-64
2022/11/15 03:09:10;;;;;;;38.53;24.98;;;;;;;9.39;100.00;100548.41;5098785;28;20036;-64
2022/11/15 03:11:41;;;;;;;35.88;24.67;;;;;;;9.37;100.00;100544.88;5094705;28;20050;-63
2022/11/15 03:14:19;;;;;;;36.63;25.35;;;;;;;9.42;100.00;100550.16;5106709;28;20037;-63
2022/11/15 03:17:23;;;;;;;35.78;24.55;;;;;;;9.39;100.00;100548.41;5109077;28;20115;-64
2022/11/15 03:19:55;;;;;;;35.78;24.23;;;;;;;9.47;100.00;100548.44;5101429;28;20034;-64
2022/11/15 03:22:24;;;;;;;37.97;24.42;;;;;;;9.51;100.00;100551.97;5101824;28;20467;-67
2022/11/15 03:24:55;;;;;;;36.42;24.95;;;;;;;9.53;100.00;100552.88;5101641;28;20020;-67
2022/11/15 03:27:25;;;;;;;35.47;24.35;;;;;;;9.56;100.00;100556.38;5101536;28;20035;-67
2022/11/15 03:29:57;;;;;;;38.97;25.20;;;;;;;9.53;100.00;100550.22;5101639;28;20020;-67
2022/11/15 03:32:27;;;;;;;36.63;25.13;;;;;;;9.55;100.00;100537.91;5102167;28;20024;-67
2022/11/15 03:34:58;;;;;;;37.05;24.48;;;;;;;9.55;100.00;100541.44;5108654;28;20027;-67
2022/11/15 03:37:32;;;;;;;35.55;23.80;;;;;;;9.55;100.00;100543.19;5105139;28;20085;-66
2022/11/15 03:39:57;;;;;;;35.50;23.40;;;;;;;9.55;100.00;100548.47;5107779;28;20034;-67
2022/11/15 03:42:46;;;;;;;36.53;24.77;;;;;;;9.56;100.00;100534.41;5105139;28;20032;-67
2022/11/15 03:45:22;;;;;;;37.40;24.58;;;;;;;9.55;100.00;100548.47;5094909;28;20043;-67
2022/11/15 03:48:11;;;;;;;38.60;25.27;;;;;;;9.56;100.00;100552.88;5100988;28;20020;-67
2022/11/15 03:50:36;;;;;;;37.72;25.30;;;;;;;9.55;100.00;100556.38;5105600;28;20035;-66
2022/11/15 03:53:02;;;;;;;38.38;25.70;;;;;;;9.54;100.00;100547.59;5105535;28;20482;-68
2022/11/15 03:55:28;;;;;;;39.60;26.10;;;;;;;9.54;100.00;100555.50;5105510;28;20035;-66
2022/11/15 03:57:57;;;;;;;40.55;26.52;;;;;;;9.55;100.00;100545.81;5108163;28;20030;-66
2022/11/15 04:00:23;;;;;;;40.53;26.83;;;;;;;9.57;100.00;100549.38;5104603;28;20027;-67
2022/11/15 04:02:48;;;;;;;39.22;26.38;;;;;;;9.57;100.00;100546.72;5108134;28;20035;-66
2022/11/15 04:05:13;;;;;;;40.45;27.35;;;;;;;9.58;100.00;100548.47;5105016;28;20024;-66
2022/11/15 04:07:39;;;;;;;40.80;26.90;;;;;;;9.59;100.00;100545.84;5105522;28;20020;-66
2022/11/15 04:10:05;;;;;;;41.00;26.95;;;;;;;9.61;100.00;100548.50;5106101;28;20038;-68
2022/11/15 04:12:36;;;;;;;41.83;27.25;;;;;;;9.57;100.00;100544.97;5105610;28;20079;-67
2022/11/15 04:15:31;;;;;;;41.83;27.40;;;;;;;9.62;100.00;100549.38;5106363;28;20055;-67
2022/11/15 04:17:57;;;;;;;41.28;27.90;;;;;;;9.62;100.00;100539.69;5100197;28;20070;-68
2022/11/15 04:26:04;;;;;;;39.40;26.80;;;;;;;9.63;100.00;100543.22;5102425;28;20082;-68
2022/11/15 04:28:30;;;;;;;41.75;27.50;;;;;;;9.62;100.00;100530.91;5106321;28;20023;-68
2022/11/15 04:30:56;;;;;;;42.17;28.08;;;;;;;9.60;100.00;100546.75;5104496;28;20043;-68
2022/11/15 04:33:21;;;;;;;41.80;27.88;;;;;;;9.59;100.00;100532.63;5107700;28;20020;-68
2022/11/15 04:37:11;;;;;;;42.92;27.33;;;;;;;9.57;100.00;100541.44;5102527;28;20028;-68
2022/11/15 04:38:32;;;;;;;39.95;27.00;;;;;;;9.57;100.00;100544.09;5103044;28;20089;-68
2022/11/15 04:40:58;;;;;;;41.70;27.27;;;;;;;9.57;100.00;100546.72;5106591;28;20032;-68
2022/11/15 04:43:23;;;;;;;42.65;28.45;;;;;;;9.55;100.00;100546.72;5103753;28;20497;-67
2022/11/15 04:45:48;;;;;;;40.13;27.58;;;;;;;9.52;100.00;100553.72;5106988;28;20081;-68
2022/11/15 04:48:14;;;;;;;42.70;27.35;;;;;;;9.52;100.00;100546.72;5104446;28;20386;-68
2022/11/15 04:50:39;;;;;;;42.45;27.50;;;;;;;9.51;100.00;100551.97;5105835;28;20554;-68
2022/11/15 04:53:04;;;;;;;42.70;26.65;;;;;;;9.49;100.00;100545.81;5105728;28;20555;-68
2022/11/15 04:55:30;;;;;;;41.67;27.73;;;;;;;9.46;100.00;100543.16;5104543;28;20063;-65
2022/11/15 04:58:00;;;;;;;41.20;27.15;;;;;;;9.46;100.00;100546.66;5105335;28;20069;-68
2022/11/15 05:00:26;;;;;;;40.95;27.02;;;;;;;9.45;100.00;100542.28;5103819;28;20032;-67
2022/11/15 05:05:36;;;;;;;41.88;27.88;;;;;;;9.41;100.00;100537.88;5103684;28;20038;-68
2022/11/15 05:08:02;;;;;;;43.95;27.65;;;;;;;9.45;100.00;100546.66;5105336;28;20023;-67
2022/11/15 05:10:27;;;;;;;42.92;28.13;;;;;;;9.45;100.00;100544.03;5104018;28;20058;-68
2022/11/15 05:12:52;;;;;;;43.33;27.70;;;;;;;9.43;100.00;100534.34;5106665;27;20073;-67
2022/11/15 05:15:18;;;;;;;40.38;27.80;;;;;;;9.43;100.00;100539.63;5098953;28;20024;-67
2022/11/15 05:17:43;;;;;;;42.42;27.88;;;;;;;9.42;100.00;100548.44;5106289;28;20059;-68
2022/11/15 05:20:09;;;;;;;41.90;27.48;;;;;;;9.46;100.00;100544.03;5104237;27;20031;-66
2022/11/15 05:22:34;;;;;;;44.25;28.35;;;;;;;9.47;100.00;100543.16;5104376;28;20050;-67
2022/11/15 05:25:00;;;;;;;42.38;27.65;;;;;;;9.47;100.00;100534.38;5105616;28;20019;-66
2022/11/15 05:27:25;;;;;;;42.85;28.58;;;;;;;9.46;100.00;100533.47;5103202;28;20032;-65
2022/11/15 05:29:50;;;;;;;43.15;28.13;;;;;;;9.46;100.00;100530.84;5106532;28;20051;-66
2022/11/15 05:32:17;;;;;;;43.25;28.52;;;;;;;9.46;100.00;100536.13;5103304;28;20036;-67
2022/11/15 05:34:43;;;;;;;41.25;27.83;;;;;;;9.49;100.00;100532.63;5105408;28;20052;-67
2022/11/15 05:37:08;;;;;;;42.78;28.35;;;;;;;9.46;100.00;100522.91;5104193;28;20030;-67
2022/11/15 05:39:34;;;;;;;40.50;27.30;;;;;;;9.45;100.00;100526.47;5104382;28;20020;-67
2022/11/15 05:42:13;;;;;;;43.28;28.30;;;;;;;9.47;100.00;100526.47;5105136;28;20089;-67
2022/11/15 05:44:41;;;;;;;42.63;27.60;;;;;;;9.42;100.00;100519.41;5104670;28;20040;-67
2022/11/15 05:47:10;;;;;;;41.90;27.95;;;;;;;9.40;100.00;100520.25;5104273;28;20106;-67
2022/11/15 05:49:38;;;;;;;43.00;28.48;;;;;;;9.38;100.00;100522.91;5104190;28;20024;-67
2022/11/15 05:52:07;;;;;;;43.90;28.13;;;;;;;9.33;100.00;100527.25;5104308;28;20107;-67
2022/11/15 05:54:34;;;;;;;43.42;28.05;;;;;;;9.33;100.00;100531.66;5103581;28;20024;-67
2022/11/15 05:57:00;;;;;;;43.65;27.65;;;;;;;9.35;100.00;100537.81;5105361;28;20102;-67
2022/11/15 05:59:25;;;;;;;42.53;27.90;;;;;;;9.38;100.00;100540.50;5102412;28;20531;-66
2022/11/15 06:01:51;;;;;;;43.10;27.85;;;;;;;9.42;100.00;100543.16;5105889;28;20020;-67
2022/11/15 06:04:16;;;;;;;44.75;28.25;;;;;;;9.49;100.00;100545.81;5102404;28;20042;-67
2022/11/15 06:06:42;;;;;;;43.58;28.55;;;;;;;9.54;100.00;100549.38;5104519;28;20035;-67
2022/11/15 06:09:07;;;;;;;44.22;28.20;;;;;;;9.58;100.00;100553.75;5103710;28;20027;-67
2022/11/15 06:11:33;;;;;;;43.42;27.63;;;;;;;9.57;100.00;100547.59;5103493;28;20604;-67
2022/11/15 06:13:58;;;;;;;41.97;27.73;;;;;;;9.60;100.00;100549.38;5103594;28;20110;-67
2022/11/15 06:16:23;;;;;;;41.55;28.20;;;;;;;9.63;100.00;100544.09;5102278;28;20086;-67
2022/11/15 06:18:48;;;;;;;42.58;27.13;;;;;;;9.65;100.00;100560.81;5105668;28;20477;-67
2022/11/15 06:21:14;;;;;;;41.50;26.88;;;;;;;9.67;100.00;100564.34;5102455;28;20028;-67
2022/11/15 06:23:39;;;;;;;40.78;26.42;;;;;;;9.71;100.00;100555.59;5103695;28;20078;-61
2022/11/15 06:26:05;;;;;;;40.35;26.08;;;;;;;9.69;100.00;100562.59;5092864;28;20394;-62
2022/11/15 06:28:31;;;;;;;41.40;26.95;;;;;;;9.73;100.00;100556.44;5097584;28;20085;-63
2022/11/15 06:31:10;;;;;;;41.10;26.70;;;;;;;9.72;100.00;100554.69;5101779;28;20031;-63
2022/11/15 06:33:37;;;;;;;40.28;26.27;;;;;;;9.71;100.00;100560.84;5094730;28;20050;-62
2022/11/15 06:36:03;;;;;;;41.70;26.58;;;;;;;9.70;100.00;100563.50;5099083;28;20024;-62
2022/11/15 06:38:29;;;;;;;38.42;25.77;;;;;;;9.68;100.00;100560.81;5100291;28;20150;-63
2022/11/15 06:40:54;;;;;;;39.03;25.15;;;;;;;9.65;100.00;100562.59;5094336;28;20099;-62
2022/11/15 06:43:20;;;;;;;36.10;23.50;;;;;;;9.62;100.00;100563.44;5102361;28;20123;-63
2022/11/15 06:45:45;;;;;;;36.92;24.23;;;;;;;9.62;100.00;100562.56;5099217;28;20047;-62
2022/11/15 06:48:10;;;;;;;36.03;21.55;;;;;;;9.59;100.00;100566.06;5097429;28;20032;-64
2022/11/15 06:50:36;;;;;;;34.20;21.00;;;;;;;9.63;100.00;100562.59;5095504;28;20096;-63
2022/11/15 06:53:03;;;;;;;34.60;20.75;;;;;;;9.63;100.00;100577.53;5096956;28;20123;-62
2022/11/15 06:55:29;;;;;;;33.33;20.42;;;;;;;9.61;100.00;100574.91;5095088;28;20104;-64
2022/11/15 06:57:54;;;;;;;33.03;20.13;;;;;;;9.60;100.00;100574.00;5094510;28;20118;-62
2022/11/15 07:00:21;;;;;;;32.10;20.52;;;;;;;9.63;100.00;100582.81;5096715;28;20088;-62
2022/11/15 07:02:47;;;;;;;32.22;20.13;;;;;;;9.59;100.00;100571.34;5092456;28;20028;-63
2022/11/15 07:05:13;;;;;;;34.28;20.25;;;;;;;9.57;100.00;100583.69;5095782;28;20028;-63
2022/11/15 07:07:39;;;;;;;32.45;19.88;;;;;;;9.59;100.00;100587.19;5097142;28;20028;-62
2022/11/15 07:10:05;;;;;;;32.92;19.75;;;;;;;9.59;100.00;100582.78;5095088;28;20078;-63
2022/11/15 07:12:31;;;;;;;32.53;19.17;;;;;;;9.58;100.00;100591.59;5099059;28;20039;-64
2022/11/15 07:14:56;;;;;;;30.85;18.90;;;;;;;9.59;100.00;100589.84;5092345;28;20475;-61
2022/11/15 07:17:22;;;;;;;34.60;19.45;;;;;;;9.60;100.00;100595.13;5096263;28;20137;-60
2022/11/15 07:19:47;;;;;;;31.65;18.85;;;;;;;9.58;100.00;100590.69;5095859;28;20107;-63
2022/11/15 07:22:12;;;;;;;33.38;20.38;;;;;;;9.57;100.00;100594.22;5096097;28;20031;-64
2022/11/15 07:24:38;;;;;;;33.60;20.25;;;;;;;9.56;100.00;100595.09;5099653;28;20644;-64
2022/11/15 07:27:03;;;;;;;31.13;19.27;;;;;;;9.56;100.00;100597.72;5095491;28;20028;-63
2022/11/15 07:29:28;;;;;;;31.83;20.30;;;;;;;9.56;100.00;100590.69;5093623;28;20034;-63
2022/11/15 07:31:54;;;;;;;31.88;19.23;;;;;;;9.58;100.00;100595.97;5095405;28;20020;-71
2022/11/15 07:34:19;;;;;;;30.73;19.30;;;;;;;9.58;100.00;100596.88;5095199;28;20035;-71
2022/11/15 07:36:44;;;;;;;31.30;19.63;;;;;;;9.51;100.00;100594.19;5096215;28;20024;-67
2022/11/15 07:39:11;;;;;;;32.72;19.55;;;;;;;9.42;100.00;100585.38;5086721;28;20036;-70
2022/11/15 07:41:38;;;;;;;32.90;20.23;;;;;;;9.35;100.00;100588.84;5095303;28;20490;-68
2022/11/15 07:44:03;;;;;;;33.45;20.13;;;;;;;9.30;100.00;100579.13;5097496;28;20024;-69
2022/11/15 07:46:29;;;;;;;33.33;20.30;;;;;;;9.26;100.00;100575.59;5096894;28;20122;-69
2022/11/15 07:48:54;;;;;;;34.42;20.38;;;;;;;9.23;100.00;100578.22;5099476;28;20035;-67
2022/11/15 07:51:19;;;;;;;35.67;20.90;;;;;;;9.21;100.00;100580.84;5099103;28;20032;-72
2022/11/15 07:53:45;;;;;;;35.70;20.95;;;;;;;9.19;100.00;100585.25;5095253;28;20028;-71
2022/11/15 07:56:11;;;;;;;35.05;21.08;;;;;;;9.20;100.00;100578.19;5099423;28;20378;-70
2022/11/15 07:58:36;;;;;;;34.72;20.80;;;;;;;9.20;100.00;100576.47;5100556;28;20103;-73
2022/11/15 08:01:04;;;;;;;35.08;20.70;;;;;;;9.21;100.00;100582.59;5103269;28;20576;-66
2022/11/15 08:03:29;;;;;;;35.97;19.95;;;;;;;9.24;100.00;100587.91;5101619;28;20028;-68
2022/11/15 08:05:54;;;;;;;36.17;20.42;;;;;;;9.27;100.00;100590.53;5099349;28;20360;-70
2022/11/15 08:08:20;;;;;;;35.65;20.88;;;;;;;9.29;100.00;100594.09;5103058;28;20059;-74
2022/11/15 08:10:45;;;;;;;34.03;20.40;;;;;;;9.37;100.00;100600.28;5100865;28;20108;-67
2022/11/15 08:13:12;;;;;;;34.65;20.80;;;;;;;9.39;100.00;100600.28;5099757;28;20022;-68
2022/11/15 08:15:37;;;;;;;34.45;19.98;;;;;;;9.35;100.00;100609.94;5101305;28;20020;-67
2022/11/15 08:18:05;;;;;;;33.47;19.60;;;;;;;9.33;100.00;100600.25;5100463;28;20032;-68
2022/11/15 08:20:32;;;;;;;31.48;18.00;;;;;;;9.26;100.00;100591.41;5096019;28;20024;-68
2022/11/15 08:23:01;;;;;;;32.75;18.00;;;;;;;9.25;100.00;100589.66;5098682;28;20021;-67
2022/11/15 08:25:29;;;;;;;30.60;17.20;;;;;;;9.25;100.00;100587.03;5098419;28;20103;-66
2022/11/15 08:27:57;;;;;;;30.20;17.02;;;;;;;9.32;100.00;100594.09;5099982;28;20375;-68
2022/11/15 08:30:23;;;;;;;28.88;16.25;;;;;;;9.40;100.00;100587.09;5103465;28;20028;-69
2022/11/15 08:32:50;;;;;;;29.85;16.40;;;;;;;9.43;100.00;100584.47;5098781;28;20520;-67
2022/11/15 08:35:15;;;;;;;29.35;14.68;;;;;;;9.43;100.00;100587.09;5104069;28;20032;-68
2022/11/15 08:37:41;;;;;;;27.15;14.40;;;;;;;9.52;100.00;100580.13;5107448;27;20355;-67
2022/11/15 08:40:07;;;;;;;26.33;13.60;;;;;;;9.63;100.00;100575.78;5088710;28;20101;-68
2022/11/15 08:42:33;;;;;;;24.48;12.40;;;;;;;9.69;100.00;100578.44;5103503;28;20032;-68
2022/11/15 08:44:58;;;;;;;24.35;12.90;;;;;;;9.75;100.00;100575.81;5107050;28;20054;-65
2022/11/15 08:47:24;;;;;;;23.65;11.57;;;;;;;9.83;100.00;100575.84;5104389;28;20040;-65
2022/11/15 08:49:49;;;;;;;23.42;11.38;;;;;;;9.87;100.00;100560.88;5105895;28;20028;-65
2022/11/15 08:52:15;;;;;;;23.08;11.20;;;;;;;9.95;100.00;100565.31;5105716;28;20046;-65
2022/11/15 08:54:40;;;;;;;22.90;10.88;;;;;;;10.04;100.00;100566.22;5104275;28;20043;-65
2022/11/15 08:57:06;;;;;;;21.80;10.20;;;;;;;10.17;100.00;100554.78;5106585;28;20056;-65
2022/11/15 08:59:31;;;;;;;21.85;10.07;;;;;;;10.33;100.00;100566.25;5103678;28;20043;-65
2022/11/15 09:01:56;;;;;;;21.58;10.02;;;;;;;10.44;100.00;100564.53;5106650;28;20035;-65
2022/11/15 09:04:22;;;;;;;22.63;9.32;;;;;;;10.56;100.00;100553.09;5104088;28;20039;-66
2022/11/15 09:06:47;;;;;;;20.65;9.07;;;;;;;10.70;100.00;100553.06;5105126;28;20028;-65
2022/11/15 09:09:12;;;;;;;20.35;8.48;;;;;;;10.76;100.00;100549.53;5104879;28;20351;-65
2022/11/15 09:11:38;;;;;;;19.77;7.82;;;;;;;10.85;100.00;100544.25;5103566;28;20036;-65
2022/11/15 09:14:03;;;;;;;20.33;7.22;;;;;;;10.93;100.00;100537.19;5103974;28;20054;-66
2022/11/15 09:16:30;;;;;;;19.33;7.20;;;;;;;10.94;100.00;100540.72;5101086;28;20039;-62
2022/11/15 09:18:56;;;;;;;18.60;6.90;;;;;;;10.91;100.00;100538.09;5100795;28;20027;-62
2022/11/15 09:21:21;;;;;;;18.40;6.07;;;;;;;10.94;100.00;100527.50;5101163;28;20027;-63
2022/11/15 09:23:46;;;;;;;18.10;6.20;;;;;;;10.98;100.00;100529.25;5101363;28;20035;-63
2022/11/15 09:26:12;;;;;;;18.67;6.15;;;;;;;11.05;100.00;100525.69;5098596;28;20047;-64
2022/11/15 09:28:41;;;;;;;18.38;6.30;;;;;;;11.13;100.00;100529.19;5099699;28;20024;-63
2022/11/15 09:31:07;;;;;;;18.80;5.90;;;;;;;11.20;100.00;100523.88;5094929;28;20028;-62
2022/11/15 09:33:32;;;;;;;16.33;5.47;;;;;;;11.23;100.00;100526.53;5098693;28;20379;-63
2022/11/15 09:36:06;;;;;;;16.95;5.35;;;;;;;11.11;100.00;100525.69;5099662;28;20034;-63
2022/11/15 09:38:32;;;;;;;16.80;5.10;;;;;;;10.96;100.00;100531.00;5098630;28;20111;-63
2022/11/15 09:41:12;;;;;;;17.33;5.00;;;;;;;11.03;100.00;100530.09;5095795;28;20503;-63
2022/11/15 09:43:47;;;;;;;17.77;5.28;;;;;;;11.07;100.00;100531.88;5098519;28;20074;-63
2022/11/15 09:46:25;;;;;;;15.73;4.75;;;;;;;11.28;100.00;100517.69;5095498;28;20055;-63
2022/11/15 09:49:03;;;;;;;14.77;4.78;;;;;;;11.61;100.00;100515.78;5097834;28;20036;-66
2022/11/15 09:51:31;;;;;;;15.57;4.38;;;;;;;11.79;100.00;100519.22;5097161;28;20381;-65
2022/11/15 09:54:07;;;;;;;15.50;4.20;;;;;;;11.90;100.00;100521.78;5098655;28;20370;-66
2022/11/15 09:56:37;;;;;;;12.65;3.90;;;;;;;11.90;100.00;100508.53;5096443;28;20017;-66
2022/11/15 09:59:05;;;;;;;11.05;3.42;;;;;;;11.81;100.00;100506.81;5101340;28;20031;-66
2022/11/15 10:02:05;;;;;;;13.30;3.33;;;;;;;12.03;100.00;100504.97;5103311;28;20101;-67
2022/11/15 10:04:31;;;;;;;10.63;3.30;;;;;;;12.47;100.00;100514.34;5103134;28;20047;-67
2022/11/15 10:07:14;;;;;;;11.95;3.15;;;;;;;12.60;100.00;100519.53;5103838;28;20085;-67
2022/11/15 10:09:43;;;;;;;12.70;3.30;;;;;;;12.67;100.00;100513.28;5098130;28;20024;-67
2022/11/15 10:12:11;;;;;;;14.63;3.10;;;;;;;12.65;100.00;100504.44;5105396;28;20094;-66
2022/11/15 10:14:37;;;;;;;11.50;2.75;;;;;;;12.61;100.00;100506.28;5102486;27;20036;-67
2022/11/15 10:17:17;;;;;;;11.05;2.70;;;;;;;12.53;100.00;100508.97;5104301;28;20032;-66
2022/11/15 10:19:55;;;;;;;9.63;2.80;;;;;;;12.43;100.00;100501.13;5097403;28;20078;-66
2022/11/15 10:22:26;;;;;;;11.02;3.00;;;;;;;12.02;100.00;100504.06;5100017;28;20110;-66
2022/11/15 10:25:26;;;;;;;12.93;2.88;;;;;;;12.03;100.00;100504.97;5103169;28;20026;-66
2022/11/15 10:27:58;;;;;;;11.73;2.70;;;;;;;11.90;100.00;100490.00;5099933;28;20031;-66
2022/11/15 10:30:30;;;;;;;12.20;2.80;;;;;;;12.02;100.00;100490.84;5104150;28;20102;-67
2022/11/15 10:32:56;;;;;;;11.38;2.80;;;;;;;12.19;100.00;100489.84;5103517;28;20370;-67
2022/11/15 10:35:29;;;;;;;11.40;2.60;;;;;;;12.68;100.00;100485.84;5104140;28;20032;-67
2022/11/15 10:38:09;;;;;;;10.73;2.40;;;;;;;12.81;100.00;100473.34;5102874;28;20020;-66
2022/11/15 10:40:35;;;;;;;7.25;2.38;;;;;;;13.11;100.00;100480.09;5102097;28;20024;-66
2022/11/15 10:43:10;;;;;;;11.27;2.60;;;;;;;13.56;100.00;100472.47;5104636;28;20027;-66
2022/11/15 10:45:36;;;;;;;11.02;2.65;;;;;;;13.64;100.00;100463.50;5097289;28;20513;-67
2022/11/15 10:48:13;;;;;;;10.52;2.50;;;;;;;13.77;100.00;100459.78;5104530;28;20031;-66
2022/11/15 10:50:46;;;;;;;13.25;2.45;;;;;;;14.02;100.00;100464.72;5098162;28;20020;-66
2022/11/15 10:53:24;;;;;;;9.90;2.40;;;;;;;14.54;100.00;100457.63;5098733;28;20028;-67
2022/11/15 10:55:53;;;;;;;12.32;2.60;;;;;;;15.19;100.00;100462.63;5103558;28;20047;-67
2022/11/15 10:58:29;;;;;;;11.02;2.40;;;;;;;16.13;100.00;100452.50;5102578;28;20023;-67
2022/11/15 11:00:54;;;;;;;10.30;2.40;;;;;;;15.96;100.00;100441.38;5102699;28;20052;-67
2022/11/15 11:03:34;;;;;;;11.90;2.55;;;;;;;15.65;100.00;100440.31;5102738;28;20514;-67
2022/11/15 11:06:15;;;;;;;12.35;2.45;;;;;;;15.86;100.00;100440.75;5102089;28;20027;-67
2022/11/15 11:09:00;;;;;;;10.30;2.40;;;;;;;16.55;100.00;100432.78;5099619;28;20031;-67
2022/11/15 11:11:44;;;;;;;8.52;2.33;;;;;;;16.37;100.00;100432.34;5100821;28;20027;-67
2022/11/15 11:14:17;;;;;;;12.15;2.50;;;;;;;17.07;100.00;100428.69;5099007;28;20059;-65
2022/11/15 11:17:12;;;;;;;7.70;2.40;;;;;;;17.32;100.00;100424.41;5103535;28;20055;-65
2022/11/15 11:20:00;;;;;;;8.60;2.30;;;;;;;16.51;100.00;100424.00;5098073;28;20040;-64
2022/11/15 11:22:36;;;;;;;8.02;2.30;;;;;;;16.49;100.00;100414.28;5097158;28;20044;-64
2022/11/15 11:25:32;;;;;;;9.52;2.50;;;;;;;16.93;100.00;100395.31;5098239;28;20438;-64
2022/11/15 11:28:19;;;;;;;12.63;2.45;;;;;;;16.69;100.00;100406.59;5096631;28;20517;-65
2022/11/15 11:30:53;;;;;;;13.10;2.90;;;;;;;16.03;100.00;100390.56;5099835;28;20028;-65